You are not logged in, Click here to log in

Flight FE15773

  • Airlines / 航空公司: FE15773
  • Flown By / 飛行員: Stone Chang
  • Departure Airport / 出發機場: 臺灣桃園國際機場TPE
  • Arrival Airport / 到達機場: 臺北松山機場TSA
  • Aircraft Flown / 機型: DH8-402Q
  • Aircraft Registration / 編號: B15253
  • Flight Distance / 距離: 17 Nautical Miles
  • Flight Time / 飛行時間: 00.16.03
  • Flight Level / 巡航高度: 20000 ft
  • ACARS / 航機通信定址與報告系統: kACARSII
  • Flight Type / 類別: Passenger / 客機
  • Touchdown / 觸地率: -286.82 ft/min
  • Date Submitted / 航班完成: 08/01/2017 08:18:14pm
  • Flight Status / 狀態: Landed at 20:27z and Was On Time
  • Route / 航道:
Flight Details
Gross Revenue / 航班收入:
(Load=60 units, either pax or lbs of cargo, @ $ 17.00 per unit)
$ 1, 020.00
Fuel Cost / 燃料支出:
(1025.12 kg of fuel used @ $ 0.54 per pound)
$ 553.56
Pilot Pay / 終點工資:
(This pilot earns $ 350.00 p/hr)
$ 56.00
Expense / 其他支出:
$ 816.00
Net Revenue / 航班收入:
($ -405.57)

ACARS Scoring System:

Airport METAR :

[12:07z] METAR: RCTP 011130Z 02004KT 9999 FEW020 SCT060 BKN200 29/26 Q1004 NOSIG RMK A2965
[12:14z] METAR: RCSS 011130Z 09006KT 9999 FEW025 SCT100 BKN180 29/24 Q1003 NOSIG RMK A2964

Deduction :

[12:00z] Score Triggered - Time Acceleration | Threshold: 0 | Actual: 1x | Value: -10 | Delay: 5

Score :

[12:16z] Final Score: 90

Additional Log Information:

檢視資料 / View Log

Route Map